Weather observations for the past three days for
Mount Washington
| Date | Time (edt) | Wind (mph) | Vis. (mi.) | Weather | Sky Cond. | Temperature (ºF) | Relative Humidity | Wind Chill (°F) | Heat Index (°F) | Pressure | Precipitation (in) | ||||||
|---|---|---|---|---|---|---|---|---|---|---|---|---|---|---|---|---|---|
| Air | Dwpt | 6 hour | altimeter (in) | sea level (mb) | 1 hr | 3 hr | 6 hr | ||||||||||
| Max. | Min. | ||||||||||||||||
| 06 | 16:55 | N 30 G 41 | 0.06 | Fog and Windy | BKN000 OVC003 | 37.9 | 36.5 | 95% | 26 | 0 | 0.0 | ||||||
| 06 | 15:51 | N 28 G 35 | 80.00 | Mostly Cloudy and Windy | BKN008 BKN060 | 39.2 | 33.8 | 81% | 29 | 0 | 0.0 | ||||||
| 06 | 14:55 | N 28 G 32 | 80.00 | Overcast and Windy | SCT005 OVC008 | 38.1 | 36.5 | 94% | 27 | 0 | 0.0 | ||||||
| 06 | 13:47 | NW 18 G 29 | 0.06 | Mostly Cloudy | BKN000 BKN008 BKN150 | 37.9 | 37.6 | 39 | 36 | 99% | 29 | 0 | 0.0 | ||||
| 06 | 12:55 | N 22 G 33 | 80.00 | Mostly Cloudy and Breezy | BKN008 BKN030 BKN150 | 39.2 | 30.2 | 70% | 30 | 0 | 0.0 | ||||||
| 06 | 11:55 | N 18 G 23 | 80.00 | Mostly Cloudy | BKN005 BKN030 BKN170 | 37.4 | 28.4 | 70% | 28 | 0 | 0.0 | ||||||
| 06 | 10:56 | N 17 | 15.00 | Mostly Cloudy | FEW005 SCT040 SCT120 BKN170 | 37.4 | 30.2 | 75% | 29 | 0 | 0.0 | ||||||
| 06 | 09:57 | N 17 G 29 | 90.00 | Mostly Cloudy | FEW030 SCT040 SCT120 BKN180 | 35.6 | 21.2 | 56% | 26 | 0 | 0.0 | ||||||
| 06 | 07:48 | N 18 | 0.06 | Light Rain Fog | VV000 | 37.4 | 37.4 | 38.8 | 35.8 | 100% | 28 | 0 | 0.0 | 0.24 | |||
| 06 | 06:57 | N 18 | 0.06 | Light Rain Fog | VV001 | 37.4 | 37.4 | 100% | 28 | 0 | 0.0 | ||||||
| 06 | 05:51 | N 15 | 0.13 | Light Rain Fog | BKN000 OVC010 | 36.1 | 36 | 99% | 28 | 0 | 0.0 | ||||||
| 06 | 04:56 | N 21 | 0.13 | Light Rain Fog and Breezy | VV002 | 35.6 | 35.6 | 100% | 25 | 0 | 0.0 | ||||||
| 06 | 03:57 | N 17 | 0.13 | Light Rain Fog | BKN000 OVC010 | 37.6 | 36.9 | 97% | 29 | 0 | 0.0 | ||||||
| 06 | 02:55 | N 9 | 0.06 | Light Rain Fog | VV001 | 37.4 | 37.4 | 100% | 31 | 0 | 0.0 | ||||||
| 06 | 01:54 | N 2 | 0.13 | Light Showers Rain Fog | VV002 | 39.2 | 39.2 | 39.7 | 37.9 | 100% | 0 | 0.0 | 0.01 | ||||
| 06 | 00:53 | E 12 | 0.06 | Fog | VV000 | 39.2 | 39.2 | 100% | 33 | 0 | 0.0 | ||||||
| 05 | 23:52 | E 14 G 18 | 0.06 | Fog | VV000 | 39.2 | 39.2 | 100% | 32 | 0 | 0.0 | ||||||
| 05 | 22:47 | E 18 G 25 | 0.06 | Fog | VV000 | 39.2 | 39.2 | 100% | 31 | 0 | 0.0 | ||||||
| 05 | 21:55 | E 18 | 0.06 | Fog | VV002 | 39.2 | 39.2 | 100% | 31 | 0 | 0.0 | ||||||
| 05 | 20:55 | NE 20 G 26 | 0.06 | Fog | VV002 | 39.2 | 39.2 | 100% | 30 | 0 | 0.0 | ||||||
| 05 | 19:55 | NE 18 | 0.13 | Mostly Cloudy | BKN000 BKN010 BKN030 BKN100 | 39.7 | 39.2 | 46 | 39.4 | 98% | 31 | 0 | 0.0 | 0.13 | |||
| 05 | 18:54 | NE 21 | 0.06 | Heavy Drizzle Fog and Breezy | VV001 | 41 | 41 | 100% | 32 | 0 | 0.0 | ||||||
| 05 | 17:47 | NE 17 | 0.06 | Fog | SCT000 BKN030 BKN040 | 42.1 | 41.9 | 99% | 34 | 0 | 0.0 | ||||||
| 05 | 16:50 | N 21 | 0.06 | Light Drizzle Fog and Breezy | VV001 | 44.6 | 44.6 | 100% | 37 | 0 | 0.0 | ||||||
| 05 | 15:53 | NE 18 | 0.06 | Drizzle Fog | VV002 | 44.6 | 44.6 | 100% | 37 | 0 | 0.0 | ||||||
| 05 | 13:48 | N 14 | 0.06 | Light Drizzle Fog | VV002 | 44.6 | 44.6 | 45.5 | 42.3 | 100% | 39 | 0 | 0.0 | 0.06 | |||
| 05 | 12:52 | NE 10 | 0.06 | Light Drizzle Fog | VV002 | 44.6 | 44.6 | 100% | 40 | 0 | 0.0 | ||||||
| 05 | 11:54 | NE 9 | 0.06 | Fog | VV002 | 44.6 | 44.6 | 100% | 40 | 0 | 0.0 | ||||||
| 05 | 10:52 | NE 12 | 0.06 | Light Drizzle Fog | VV002 | 44.6 | 44.6 | 100% | 39 | 0 | 0.0 | ||||||
| 05 | 09:55 | NE 15 | 0.06 | Fog | VV002 | 44.6 | 44.6 | 100% | 38 | 0 | 0.0 | ||||||
| 05 | 08:50 | N 29 G 36 | 0.00 | Fog and Windy | VV000 | 42.8 | 42.8 | 100% | 33 | 0 | 0.0 | ||||||
| 05 | 07:47 | N 21 G 29 | 0.00 | Fog and Breezy | VV000 | 42.8 | 42.8 | 45 | 42.1 | 100% | 35 | 0 | 0.0 | ||||
| 05 | 06:50 | N 24 G 33 | 0.06 | Fog and Breezy | VV002 | 42.8 | 42.8 | 100% | 34 | 0 | 0.0 | ||||||
| 05 | 05:51 | N 24 G 35 | 0.06 | Fog and Breezy | BKN000 BKN030 | 42.6 | 42.3 | 99% | 34 | 0 | 0.0 | ||||||
| 05 | 04:50 | N 30 | 0.06 | Fog and Windy | VV002 | 42.8 | 42.8 | 100% | 33 | 0 | 0.0 | ||||||
| 05 | 03:50 | NW 31 | 0.06 | Fog and Windy | VV000 | 44.6 | 44.6 | 100% | 35 | 0 | 0.0 | ||||||
| 05 | 02:51 | N 22 G 31 | 0.13 | Fog and Breezy | VV001 | 44.6 | 44.6 | 100% | 37 | 0 | 0.0 | ||||||
| 05 | 01:50 | NW 28 G 35 | 0.06 | Fog and Windy | VV000 | 44.6 | 44.6 | 45.5 | 43.9 | 100% | 36 | 0 | 0.0 | ||||
| 05 | 00:51 | NW 22 G 41 | 0.00 | Fog and Breezy | VV000 | 44.6 | 44.6 | 100% | 37 | 0 | 0.0 | ||||||
| 04 | 23:59 | NW 25 G 39 | 0.00 | Fog and Breezy | VV000 | 44.6 | 44.6 | 100% | 36 | 0 | 0.0 | ||||||
| 04 | 22:51 | NW 25 G 36 | 0.06 | Fog and Breezy | VV000 | 44.6 | 44.6 | 100% | 36 | 0 | 0.0 | ||||||
| 04 | 21:53 | NW 29 G 47 | 0.06 | Fog and Windy | VV000 | 44.6 | 44.6 | 100% | 36 | 0 | 0.0 | ||||||
| 04 | 20:52 | NW 37 G 44 | 0.06 | Fog and Windy | VV002 | 44.6 | 44.6 | 100% | 34 | 0 | 0.0 | ||||||
| 04 | 19:51 | NW 33 G 47 | 0.00 | Fog and Windy | VV000 | 44.6 | 44.6 | 47.3 | 44.4 | 100% | 35 | 0 | 0.0 | 0.01 | |||
| 04 | 18:55 | NW 38 G 47 | 0.06 | Fog and Windy | VV000 | 44.6 | 44.6 | 100% | 34 | 0 | 0.0 | ||||||
| 04 | 17:49 | NW 26 G 45 | 0.00 | Fog and Windy | VV000 | 46.4 | 46.4 | 100% | 38 | 0 | 0.0 | ||||||
| 04 | 16:54 | NW 33 G 44 | 0.00 | Fog and Windy | VV000 | 46.4 | 46.4 | 100% | 37 | 0 | 0.0 | ||||||
| 04 | 15:49 | NW 33 G 53 | 0.00 | Light Showers Rain Fog and Windy | VV000 | 48.2 | 48.2 | 100% | 40 | 0 | 0.0 | ||||||
| 04 | 14:50 | NW 37 G 45 | 0.00 | Fog and Windy | VV000 | 46.4 | 46.4 | 100% | 37 | 0 | 0.0 | ||||||
| 04 | 13:48 | W 31 G 39 | 0.00 | Fog and Windy | VV000 | 46.4 | 46.4 | 48.9 | 45.5 | 100% | 38 | 0 | 0.0 | 0.05 | |||
| 04 | 12:47 | NW 28 G 41 | 0.00 | Fog and Windy | VV000 | 46.4 | 46.4 | 100% | 38 | 0 | 0.0 | ||||||
| 04 | 11:54 | N 18 G 36 | 0.06 | Fog | VV002 | 46.4 | 46.4 | 100% | 40 | 0 | 0.0 | ||||||
| 04 | 10:53 | N 25 G 38 | 0.06 | Light Drizzle Fog and Breezy | VV000 | 46.4 | 46.4 | 100% | 38 | 0 | 0.0 | ||||||
| 04 | 09:52 | NW 25 G 38 | 0.06 | Fog and Breezy | VV000 | 48.2 | 48.2 | 100% | 41 | 0 | 0.0 | ||||||
| 04 | 08:55 | NW 23 G 43 | 0.00 | Fog and Breezy | VV000 | 48.2 | 48.2 | 100% | 41 | 0 | 0.0 | ||||||
| 04 | 07:47 | NW 36 | 0.00 | Fog and Windy | VV000 | 46.4 | 46.4 | 49.1 | 46.9 | 100% | 37 | 0 | 0.0 | ||||
| 04 | 05:54 | NW 36 G 45 | 0.06 | Fog and Windy | VV000 | 48.2 | 48.2 | 100% | 39 | 0 | 0.0 | ||||||
| 04 | 04:51 | NW 35 G 40 | 0.00 | Fog and Windy | VV000 | 48.2 | 48.2 | 100% | 40 | 0 | 0.0 | ||||||
| 04 | 03:47 | NW 36 G 40 | 0.06 | Fog and Windy | VV002 | 48.2 | 48.2 | 100% | 39 | 0 | 0.0 | ||||||
| 04 | 02:55 | W 38 G 45 | 0.06 | Fog and Windy | BKN000 | 48.2 | 48.2 | 100% | 39 | 0 | 0.0 | ||||||
| 04 | 01:51 | NW 38 | 0.06 | Fog and Windy | VV002 | 48.2 | 48.2 | 51.4 | 48.4 | 100% | 39 | 0 | 0.0 | 0.27 | |||
| 04 | 00:52 | NW 39 G 51 | 0.00 | Fog and Windy | VV000 | 48.2 | 48.2 | 100% | 39 | 0 | 0.0 | ||||||
| 03 | 23:59 | W 35 G 43 | 0.00 | Fog and Windy | VV000 | 50 | 50 | 100% | 42 | 0 | 0.0 | ||||||
| 03 | 22:50 | NW 36 G 43 | 0.00 | Fog and Windy | VV000 | 50 | 50 | 100% | 42 | 0 | 0.0 | ||||||
| 03 | 21:49 | NW 39 | 0.00 | Fog and Windy | VV000 | 50 | 50 | 100% | 42 | 0 | 0.0 | ||||||
| 03 | 20:53 | NW 38 | 0.00 | Fog and Windy | VV000 | 51.8 | 51.8 | 100% | 0 | 0.0 | |||||||
| 03 | 19:52 | W 31 G 35 | 0.06 | Showers Rain Fog and Windy | VV000 | 50 | 50 | 53.2 | 50.4 | 100% | 42 | 0 | 0.0 | 0.12 | |||
| 03 | 18:55 | W 28 | 0.00 | Light Showers Rain Fog and Windy | VV000 | 51.8 | 51.8 | 100% | 0 | 0.0 | |||||||
| 03 | 17:59 | W 39 G 52 | 0.00 | Fog and Windy | VV000 | 51.8 | 51.8 | 100% | 0 | 0.0 | |||||||
| Date | Time (edt) | Wind (mph) | Vis. (mi.) | Weather | Sky Cond. | Air | Dwpt | Max. | Min. | Relative Humidity | Wind Chill (°F) | Heat Index (°F) | altimeter (in) | sea level (mb) | 1 hr | 3 hr | 6 hr |
| 6 hour | |||||||||||||||||
| Temperature (ºF) | Pressure | Precipitation (in) | |||||||||||||||